DAFH

Hassi R'Mel Airport

Algeria
METAR DAFH 230800Z 29010KT CAVOK 04/M01 Q1007
Observed Flight Rules
Feb-23 @ 08:00 UTC (25 minutes ago) Visual Flight Rules
Wind Visibility Clouds
290° at 10 knots 10,000+ meters
  • Clear skies
Temperatures Readings
Current 4°C / 39°F
Dewpoint -1°C / 30°F
Humidity 70%
Altimeter 29.73" Hg
Pressure 1007 hPa
Elevation 774
METAR DAFH 230800Z 29010KT CAVOK 04/M01 Q1007
Observed Flight Rules
Feb-23 @ 08:00 UTC
(25 minutes ago)
VFR
Wind Visibility
290° at 10 knots 10,000+ meters
Clouds
  • Clear skies
Temperature Dewpoint
4°C / 39°F -1°C / 30°F
Humidity Altimeter Pressure
70% 29.73" Hg 1007 hPa